sensor_id;sensor_type;location;lat;lon;timestamp;temperature;humidity
42019;DHT22;27703;51.980;5.848;2023-10-09T00:00:57;14.60;99.90
42019;DHT22;27703;51.980;5.848;2023-10-09T00:03:42;14.50;99.90
42019;DHT22;27703;51.980;5.848;2023-10-09T00:06:09;14.50;99.90
42019;DHT22;27703;51.980;5.848;2023-10-09T00:08:42;14.50;99.90
42019;DHT22;27703;51.980;5.848;2023-10-09T00:11:10;14.50;99.90
42019;DHT22;27703;51.980;5.848;2023-10-09T00:13:43;14.60;99.90
42019;DHT22;27703;51.980;5.848;2023-10-09T00:16:19;14.60;99.90
42019;DHT22;27703;51.980;5.848;2023-10-09T00:19:05;14.60;99.90
42019;DHT22;27703;51.980;5.848;2023-10-09T00:21:49;14.60;99.90
42019;DHT22;27703;51.980;5.848;2023-10-09T00:24:15;14.60;99.90
42019;DHT22;27703;51.980;5.848;2023-10-09T00:26:51;14.60;99.90
42019;DHT22;27703;51.980;5.848;2023-10-09T00:29:18;14.70;99.90
42019;DHT22;27703;51.980;5.848;2023-10-09T00:31:53;14.70;99.90
42019;DHT22;27703;51.980;5.848;2023-10-09T00:34:38;14.80;99.90
42019;DHT22;27703;51.980;5.848;2023-10-09T00:37:10;14.70;99.90
42019;DHT22;27703;51.980;5.848;2023-10-09T00:39:42;14.70;99.90
42019;DHT22;27703;51.980;5.848;2023-10-09T00:42:13;14.60;99.90
42019;DHT22;27703;51.980;5.848;2023-10-09T00:44:40;14.50;99.90
42019;DHT22;27703;51.980;5.848;2023-10-09T00:47:09;14.50;99.90
42019;DHT22;27703;51.980;5.848;2023-10-09T00:50:00;14.50;99.90
42019;DHT22;27703;51.980;5.848;2023-10-09T00:52:33;14.60;99.90
42019;DHT22;27703;51.980;5.848;2023-10-09T00:55:09;14.50;99.90
42019;DHT22;27703;51.980;5.848;2023-10-09T00:57:56;14.50;99.90
42019;DHT22;27703;51.980;5.848;2023-10-09T01:00:24;14.60;99.90
42019;DHT22;27703;51.980;5.848;2023-10-09T01:02:59;14.60;99.90
42019;DHT22;27703;51.980;5.848;2023-10-09T01:06:01;14.60;99.90
42019;DHT22;27703;51.980;5.848;2023-10-09T01:08:38;14.70;99.90
42019;DHT22;27703;51.980;5.848;2023-10-09T01:11:11;14.70;99.90
42019;DHT22;27703;51.980;5.848;2023-10-09T01:13:46;14.70;99.90
42019;DHT22;27703;51.980;5.848;2023-10-09T01:16:12;14.70;99.90
42019;DHT22;27703;51.980;5.848;2023-10-09T01:18:46;14.60;99.90
42019;DHT22;27703;51.980;5.848;2023-10-09T01:21:18;14.60;99.90
42019;DHT22;27703;51.980;5.848;2023-10-09T01:23:49;14.60;99.90
42019;DHT22;27703;51.980;5.848;2023-10-09T01:26:32;14.60;99.90
42019;DHT22;27703;51.980;5.848;2023-10-09T01:29:11;14.60;99.90
42019;DHT22;27703;51.980;5.848;2023-10-09T01:31:47;14.60;99.90
42019;DHT22;27703;51.980;5.848;2023-10-09T01:34:27;14.70;99.90
42019;DHT22;27703;51.980;5.848;2023-10-09T01:37:17;14.80;99.90
42019;DHT22;27703;51.980;5.848;2023-10-09T01:39:53;14.80;99.90
42019;DHT22;27703;51.980;5.848;2023-10-09T01:42:23;14.80;99.90
42019;DHT22;27703;51.980;5.848;2023-10-09T01:45:09;14.80;99.90
42019;DHT22;27703;51.980;5.848;2023-10-09T01:47:55;14.80;99.90
42019;DHT22;27703;51.980;5.848;2023-10-09T01:50:22;14.80;99.90
42019;DHT22;27703;51.980;5.848;2023-10-09T01:52:50;14.80;99.90
42019;DHT22;27703;51.980;5.848;2023-10-09T01:55:19;14.80;99.90
42019;DHT22;27703;51.980;5.848;2023-10-09T01:58:01;14.90;99.90
42019;DHT22;27703;51.980;5.848;2023-10-09T02:00:34;14.90;99.90
42019;DHT22;27703;51.980;5.848;2023-10-09T02:03:07;15.00;99.90
42019;DHT22;27703;51.980;5.848;2023-10-09T02:05:38;15.00;99.90
42019;DHT22;27703;51.980;5.848;2023-10-09T02:08:04;15.00;99.90
42019;DHT22;27703;51.980;5.848;2023-10-09T02:10:31;15.00;99.90
42019;DHT22;27703;51.980;5.848;2023-10-09T02:13:01;15.00;99.90
42019;DHT22;27703;51.980;5.848;2023-10-09T02:15:34;15.00;99.90
42019;DHT22;27703;51.980;5.848;2023-10-09T02:18:10;15.10;99.90
42019;DHT22;27703;51.980;5.848;2023-10-09T02:23:31;15.10;99.90
42019;DHT22;27703;51.980;5.848;2023-10-09T02:26:13;15.10;99.90
42019;DHT22;27703;51.980;5.848;2023-10-09T02:28:55;15.10;99.90
42019;DHT22;27703;51.980;5.848;2023-10-09T02:31:25;15.10;99.90
42019;DHT22;27703;51.980;5.848;2023-10-09T02:34:01;15.20;99.90
42019;DHT22;27703;51.980;5.848;2023-10-09T02:36:30;15.10;99.90
42019;DHT22;27703;51.980;5.848;2023-10-09T02:38:56;15.10;99.90
42019;DHT22;27703;51.980;5.848;2023-10-09T02:41:22;15.20;99.90
42019;DHT22;27703;51.980;5.848;2023-10-09T02:43:53;15.20;99.90
42019;DHT22;27703;51.980;5.848;2023-10-09T02:46:21;15.20;99.90
42019;DHT22;27703;51.980;5.848;2023-10-09T02:48:55;15.20;99.90
42019;DHT22;27703;51.980;5.848;2023-10-09T02:51:26;15.20;99.90
42019;DHT22;27703;51.980;5.848;2023-10-09T02:53:59;15.20;99.90
42019;DHT22;27703;51.980;5.848;2023-10-09T02:56:25;15.20;99.90
42019;DHT22;27703;51.980;5.848;2023-10-09T02:59:04;15.20;99.90
42019;DHT22;27703;51.980;5.848;2023-10-09T03:01:37;15.20;99.90
42019;DHT22;27703;51.980;5.848;2023-10-09T03:04:04;15.20;99.90
42019;DHT22;27703;51.980;5.848;2023-10-09T03:06:32;15.20;99.90
42019;DHT22;27703;51.980;5.848;2023-10-09T03:09:01;15.20;99.90
42019;DHT22;27703;51.980;5.848;2023-10-09T03:11:48;15.20;99.90
42019;DHT22;27703;51.980;5.848;2023-10-09T03:14:19;15.20;99.90
42019;DHT22;27703;51.980;5.848;2023-10-09T03:16:46;15.20;99.90
42019;DHT22;27703;51.980;5.848;2023-10-09T03:19:14;15.20;99.90
42019;DHT22;27703;51.980;5.848;2023-10-09T03:21:40;15.20;99.90
42019;DHT22;27703;51.980;5.848;2023-10-09T03:24:07;15.20;99.90
42019;DHT22;27703;51.980;5.848;2023-10-09T03:26:33;15.20;99.90
42019;DHT22;27703;51.980;5.848;2023-10-09T03:28:59;15.20;99.90
42019;DHT22;27703;51.980;5.848;2023-10-09T03:31:35;15.20;99.90
42019;DHT22;27703;51.980;5.848;2023-10-09T03:34:02;15.20;99.90
42019;DHT22;27703;51.980;5.848;2023-10-09T03:36:28;15.20;99.90
42019;DHT22;27703;51.980;5.848;2023-10-09T03:38:54;15.30;99.90
42019;DHT22;27703;51.980;5.848;2023-10-09T03:41:23;15.30;99.90
42019;DHT22;27703;51.980;5.848;2023-10-09T03:43:51;15.30;99.90
42019;DHT22;27703;51.980;5.848;2023-10-09T03:46:17;15.30;99.90
42019;DHT22;27703;51.980;5.848;2023-10-09T03:48:50;15.30;99.90
42019;DHT22;27703;51.980;5.848;2023-10-09T03:51:22;15.30;99.90
42019;DHT22;27703;51.980;5.848;2023-10-09T03:53:49;15.40;99.90
42019;DHT22;27703;51.980;5.848;2023-10-09T03:56:15;15.40;99.90
42019;DHT22;27703;51.980;5.848;2023-10-09T03:58:46;15.40;99.90
42019;DHT22;27703;51.980;5.848;2023-10-09T04:01:13;15.40;99.90
42019;DHT22;27703;51.980;5.848;2023-10-09T04:04:00;15.40;99.90
42019;DHT22;27703;51.980;5.848;2023-10-09T04:06:31;15.30;99.90
42019;DHT22;27703;51.980;5.848;2023-10-09T04:09:05;15.30;99.90
42019;DHT22;27703;51.980;5.848;2023-10-09T04:11:47;15.30;99.90
42019;DHT22;27703;51.980;5.848;2023-10-09T04:14:15;15.30;99.90
42019;DHT22;27703;51.980;5.848;2023-10-09T04:16:51;15.30;99.90
42019;DHT22;27703;51.980;5.848;2023-10-09T04:19:17;15.40;99.90
42019;DHT22;27703;51.980;5.848;2023-10-09T04:21:47;15.30;99.90
42019;DHT22;27703;51.980;5.848;2023-10-09T04:24:13;15.40;99.90
42019;DHT22;27703;51.980;5.848;2023-10-09T04:26:43;15.40;99.90
42019;DHT22;27703;51.980;5.848;2023-10-09T04:29:15;15.40;99.90
42019;DHT22;27703;51.980;5.848;2023-10-09T04:31:52;15.60;99.90
42019;DHT22;27703;51.980;5.848;2023-10-09T04:34:18;15.60;99.90
42019;DHT22;27703;51.980;5.848;2023-10-09T04:36:48;15.70;99.90
42019;DHT22;27703;51.980;5.848;2023-10-09T04:39:15;15.70;99.90
42019;DHT22;27703;51.980;5.848;2023-10-09T04:41:51;15.70;99.90
42019;DHT22;27703;51.980;5.848;2023-10-09T04:44:18;15.80;99.90
42019;DHT22;27703;51.980;5.848;2023-10-09T04:46:48;15.80;99.90
42019;DHT22;27703;51.980;5.848;2023-10-09T04:49:33;15.80;99.90
42019;DHT22;27703;51.980;5.848;2023-10-09T04:52:19;15.80;99.90
42019;DHT22;27703;51.980;5.848;2023-10-09T04:54:51;15.90;99.90
42019;DHT22;27703;51.980;5.848;2023-10-09T04:57:44;15.90;99.90
42019;DHT22;27703;51.980;5.848;2023-10-09T05:03:01;15.90;99.90
42019;DHT22;27703;51.980;5.848;2023-10-09T05:05:36;15.90;99.90
42019;DHT22;27703;51.980;5.848;2023-10-09T05:08:15;16.00;99.90
42019;DHT22;27703;51.980;5.848;2023-10-09T05:11:05;16.00;99.90
42019;DHT22;27703;51.980;5.848;2023-10-09T05:13:40;16.00;99.90
42019;DHT22;27703;51.980;5.848;2023-10-09T05:16:10;15.90;99.90
42019;DHT22;27703;51.980;5.848;2023-10-09T05:18:41;16.00;99.90
42019;DHT22;27703;51.980;5.848;2023-10-09T05:21:07;16.10;99.90
42019;DHT22;27703;51.980;5.848;2023-10-09T05:23:42;16.10;99.90
42019;DHT22;27703;51.980;5.848;2023-10-09T05:26:15;16.10;99.90
42019;DHT22;27703;51.980;5.848;2023-10-09T05:28:59;16.10;99.90
42019;DHT22;27703;51.980;5.848;2023-10-09T05:31:24;16.10;99.90
42019;DHT22;27703;51.980;5.848;2023-10-09T05:34:19;16.10;99.90
42019;DHT22;27703;51.980;5.848;2023-10-09T05:36:47;16.10;99.90
42019;DHT22;27703;51.980;5.848;2023-10-09T05:39:13;16.10;99.90
42019;DHT22;27703;51.980;5.848;2023-10-09T05:42:06;16.20;99.90
42019;DHT22;27703;51.980;5.848;2023-10-09T05:44:43;16.10;99.90
42019;DHT22;27703;51.980;5.848;2023-10-09T05:47:27;16.10;99.90
42019;DHT22;27703;51.980;5.848;2023-10-09T05:49:53;16.20;99.90
42019;DHT22;27703;51.980;5.848;2023-10-09T05:52:34;16.20;99.90
42019;DHT22;27703;51.980;5.848;2023-10-09T05:55:06;16.20;99.90
42019;DHT22;27703;51.980;5.848;2023-10-09T05:57:56;16.20;99.90
42019;DHT22;27703;51.980;5.848;2023-10-09T06:00:22;16.20;99.90
42019;DHT22;27703;51.980;5.848;2023-10-09T06:03:07;16.20;99.90
42019;DHT22;27703;51.980;5.848;2023-10-09T06:05:54;16.20;99.90
42019;DHT22;27703;51.980;5.848;2023-10-09T06:08:23;16.20;99.90
42019;DHT22;27703;51.980;5.848;2023-10-09T06:10:55;16.30;99.90
42019;DHT22;27703;51.980;5.848;2023-10-09T06:13:39;16.30;99.90
42019;DHT22;27703;51.980;5.848;2023-10-09T06:16:25;16.30;99.90
42019;DHT22;27703;51.980;5.848;2023-10-09T06:19:25;16.30;99.90
42019;DHT22;27703;51.980;5.848;2023-10-09T06:21:59;16.20;99.90
42019;DHT22;27703;51.980;5.848;2023-10-09T06:24:47;16.30;99.90
42019;DHT22;27703;51.980;5.848;2023-10-09T06:27:19;16.30;99.90
42019;DHT22;27703;51.980;5.848;2023-10-09T06:29:57;16.30;99.90
42019;DHT22;27703;51.980;5.848;2023-10-09T06:32:59;16.30;99.90
42019;DHT22;27703;51.980;5.848;2023-10-09T06:35:47;16.30;99.90
42019;DHT22;27703;51.980;5.848;2023-10-09T06:38:22;16.20;99.90
42019;DHT22;27703;51.980;5.848;2023-10-09T06:40:50;16.30;99.90
42019;DHT22;27703;51.980;5.848;2023-10-09T06:43:31;16.30;99.90
42019;DHT22;27703;51.980;5.848;2023-10-09T06:45:58;16.30;99.90
42019;DHT22;27703;51.980;5.848;2023-10-09T06:48:24;16.30;99.90
42019;DHT22;27703;51.980;5.848;2023-10-09T06:51:03;16.30;99.90
42019;DHT22;27703;51.980;5.848;2023-10-09T06:53:33;16.40;99.90
42019;DHT22;27703;51.980;5.848;2023-10-09T06:56:18;16.30;99.90
42019;DHT22;27703;51.980;5.848;2023-10-09T06:59:05;16.40;99.90
42019;DHT22;27703;51.980;5.848;2023-10-09T07:01:51;16.30;99.90
42019;DHT22;27703;51.980;5.848;2023-10-09T07:04:37;16.30;99.90
42019;DHT22;27703;51.980;5.848;2023-10-09T07:07:03;16.30;99.90
42019;DHT22;27703;51.980;5.848;2023-10-09T07:09:46;16.30;99.90
42019;DHT22;27703;51.980;5.848;2023-10-09T07:12:34;16.30;99.90
42019;DHT22;27703;51.980;5.848;2023-10-09T07:15:03;16.30;99.90
42019;DHT22;27703;51.980;5.848;2023-10-09T07:17:50;16.30;99.90
42019;DHT22;27703;51.980;5.848;2023-10-09T07:20:17;16.40;99.90
42019;DHT22;27703;51.980;5.848;2023-10-09T07:23:03;16.40;99.90
42019;DHT22;27703;51.980;5.848;2023-10-09T07:25:49;16.40;99.90
42019;DHT22;27703;51.980;5.848;2023-10-09T07:28:21;16.40;99.90
42019;DHT22;27703;51.980;5.848;2023-10-09T07:31:03;16.40;99.90
42019;DHT22;27703;51.980;5.848;2023-10-09T07:33:28;16.40;99.90
42019;DHT22;27703;51.980;5.848;2023-10-09T07:36:13;16.40;99.90
42019;DHT22;27703;51.980;5.848;2023-10-09T07:38:39;16.50;99.90
42019;DHT22;27703;51.980;5.848;2023-10-09T07:41:09;16.50;99.90
42019;DHT22;27703;51.980;5.848;2023-10-09T07:43:37;16.50;99.90
42019;DHT22;27703;51.980;5.848;2023-10-09T07:46:21;16.50;99.90
42019;DHT22;27703;51.980;5.848;2023-10-09T07:49:07;16.50;99.90
42019;DHT22;27703;51.980;5.848;2023-10-09T07:51:40;16.60;99.90
42019;DHT22;27703;51.980;5.848;2023-10-09T07:54:10;16.50;99.90
42019;DHT22;27703;51.980;5.848;2023-10-09T07:56:43;16.50;99.90
42019;DHT22;27703;51.980;5.848;2023-10-09T07:59:15;16.60;99.90
42019;DHT22;27703;51.980;5.848;2023-10-09T08:01:48;16.60;99.90
42019;DHT22;27703;51.980;5.848;2023-10-09T08:04:25;16.60;99.90
42019;DHT22;27703;51.980;5.848;2023-10-09T08:07:06;16.60;99.90
42019;DHT22;27703;51.980;5.848;2023-10-09T08:09:33;16.70;99.90
42019;DHT22;27703;51.980;5.848;2023-10-09T08:12:17;16.70;99.90
42019;DHT22;27703;51.980;5.848;2023-10-09T08:15:02;16.80;99.90
42019;DHT22;27703;51.980;5.848;2023-10-09T08:17:47;16.80;99.90
42019;DHT22;27703;51.980;5.848;2023-10-09T08:20:33;16.90;99.90
42019;DHT22;27703;51.980;5.848;2023-10-09T08:23:22;16.90;99.90
42019;DHT22;27703;51.980;5.848;2023-10-09T08:26:04;16.90;99.90
42019;DHT22;27703;51.980;5.848;2023-10-09T08:28:39;17.00;99.90
42019;DHT22;27703;51.980;5.848;2023-10-09T08:31:12;17.00;99.90
42019;DHT22;27703;51.980;5.848;2023-10-09T08:33:46;17.00;99.90
42019;DHT22;27703;51.980;5.848;2023-10-09T08:36:22;17.10;99.90
42019;DHT22;27703;51.980;5.848;2023-10-09T08:38:48;17.10;99.90
42019;DHT22;27703;51.980;5.848;2023-10-09T08:41:14;17.10;99.90
42019;DHT22;27703;51.980;5.848;2023-10-09T08:43:52;17.20;99.90
42019;DHT22;27703;51.980;5.848;2023-10-09T08:46:25;17.20;99.90
42019;DHT22;27703;51.980;5.848;2023-10-09T08:48:58;17.20;99.90
42019;DHT22;27703;51.980;5.848;2023-10-09T08:51:25;17.30;99.90
42019;DHT22;27703;51.980;5.848;2023-10-09T08:53:52;17.30;99.90
42019;DHT22;27703;51.980;5.848;2023-10-09T08:56:19;17.40;99.90
42019;DHT22;27703;51.980;5.848;2023-10-09T08:58:52;17.40;99.90
42019;DHT22;27703;51.980;5.848;2023-10-09T09:01:19;17.40;99.90
42019;DHT22;27703;51.980;5.848;2023-10-09T09:03:47;17.40;99.90
42019;DHT22;27703;51.980;5.848;2023-10-09T09:06:13;17.50;99.90
42019;DHT22;27703;51.980;5.848;2023-10-09T09:08:40;17.60;99.90
42019;DHT22;27703;51.980;5.848;2023-10-09T09:11:18;17.60;99.90
42019;DHT22;27703;51.980;5.848;2023-10-09T09:14:03;17.70;99.90
42019;DHT22;27703;51.980;5.848;2023-10-09T09:16:41;17.80;99.90
42019;DHT22;27703;51.980;5.848;2023-10-09T09:19:09;17.80;99.90
42019;DHT22;27703;51.980;5.848;2023-10-09T09:21:49;17.80;99.90
42019;DHT22;27703;51.980;5.848;2023-10-09T09:24:19;17.90;99.90
42019;DHT22;27703;51.980;5.848;2023-10-09T09:26:49;17.90;99.90
42019;DHT22;27703;51.980;5.848;2023-10-09T09:32:04;18.00;99.90
42019;DHT22;27703;51.980;5.848;2023-10-09T09:34:48;18.00;99.90
42019;DHT22;27703;51.980;5.848;2023-10-09T09:37:28;18.10;99.90
42019;DHT22;27703;51.980;5.848;2023-10-09T09:40:03;18.10;99.90
42019;DHT22;27703;51.980;5.848;2023-10-09T09:42:58;18.20;99.90
42019;DHT22;27703;51.980;5.848;2023-10-09T09:45:38;18.20;99.90
42019;DHT22;27703;51.980;5.848;2023-10-09T09:48:07;18.30;99.90
42019;DHT22;27703;51.980;5.848;2023-10-09T09:50:36;18.30;99.90
42019;DHT22;27703;51.980;5.848;2023-10-09T09:53:12;18.40;99.90
42019;DHT22;27703;51.980;5.848;2023-10-09T09:55:51;18.50;99.90
42019;DHT22;27703;51.980;5.848;2023-10-09T09:58:26;18.60;99.90
42019;DHT22;27703;51.980;5.848;2023-10-09T10:01:04;18.70;99.90
42019;DHT22;27703;51.980;5.848;2023-10-09T10:04:12;18.70;99.90
42019;DHT22;27703;51.980;5.848;2023-10-09T10:06:40;18.80;99.90
42019;DHT22;27703;51.980;5.848;2023-10-09T10:09:10;18.80;99.90
42019;DHT22;27703;51.980;5.848;2023-10-09T10:11:46;18.80;99.90
42019;DHT22;27703;51.980;5.848;2023-10-09T10:14:13;18.90;99.90
42019;DHT22;27703;51.980;5.848;2023-10-09T10:17:07;18.90;99.90
42019;DHT22;27703;51.980;5.848;2023-10-09T10:20:03;19.00;99.90
42019;DHT22;27703;51.980;5.848;2023-10-09T10:22:49;19.10;99.90
42019;DHT22;27703;51.980;5.848;2023-10-09T10:28:20;19.20;99.90
42019;DHT22;27703;51.980;5.848;2023-10-09T10:31:01;19.20;99.90
42019;DHT22;27703;51.980;5.848;2023-10-09T10:34:04;19.20;99.90
42019;DHT22;27703;51.980;5.848;2023-10-09T10:36:32;19.30;99.90
42019;DHT22;27703;51.980;5.848;2023-10-09T10:39:07;19.20;99.90
42019;DHT22;27703;51.980;5.848;2023-10-09T10:41:35;19.30;99.90
42019;DHT22;27703;51.980;5.848;2023-10-09T10:44:14;19.30;99.90
42019;DHT22;27703;51.980;5.848;2023-10-09T10:46:58;19.30;99.90
42019;DHT22;27703;51.980;5.848;2023-10-09T10:49:23;19.40;99.90
42019;DHT22;27703;51.980;5.848;2023-10-09T10:51:51;19.40;99.90
42019;DHT22;27703;51.980;5.848;2023-10-09T10:54:35;19.40;99.90
42019;DHT22;27703;51.980;5.848;2023-10-09T10:57:01;19.40;99.90
42019;DHT22;27703;51.980;5.848;2023-10-09T10:59:31;19.40;99.90
42019;DHT22;27703;51.980;5.848;2023-10-09T11:02:10;19.50;99.90
42019;DHT22;27703;51.980;5.848;2023-10-09T11:04:36;19.50;99.90
42019;DHT22;27703;51.980;5.848;2023-10-09T11:07:02;19.60;99.90
42019;DHT22;27703;51.980;5.848;2023-10-09T11:09:57;19.60;99.90
42019;DHT22;27703;51.980;5.848;2023-10-09T11:12:44;19.70;99.90
42019;DHT22;27703;51.980;5.848;2023-10-09T11:15:31;19.80;99.90
42019;DHT22;27703;51.980;5.848;2023-10-09T11:18:11;19.90;99.90
42019;DHT22;27703;51.980;5.848;2023-10-09T11:20:44;19.90;99.90
42019;DHT22;27703;51.980;5.848;2023-10-09T11:23:22;19.90;99.90
42019;DHT22;27703;51.980;5.848;2023-10-09T11:26:02;19.90;99.90
42019;DHT22;27703;51.980;5.848;2023-10-09T11:29:05;20.00;99.90
42019;DHT22;27703;51.980;5.848;2023-10-09T11:31:42;20.00;99.90
42019;DHT22;27703;51.980;5.848;2023-10-09T11:34:20;20.00;99.90
42019;DHT22;27703;51.980;5.848;2023-10-09T11:36:56;20.00;99.90
42019;DHT22;27703;51.980;5.848;2023-10-09T11:39:28;20.10;99.90
42019;DHT22;27703;51.980;5.848;2023-10-09T11:42:05;20.10;99.90
42019;DHT22;27703;51.980;5.848;2023-10-09T11:44:35;20.20;99.90
42019;DHT22;27703;51.980;5.848;2023-10-09T11:47:01;20.30;99.90
42019;DHT22;27703;51.980;5.848;2023-10-09T11:49:56;20.40;99.90
42019;DHT22;27703;51.980;5.848;2023-10-09T11:52:32;20.50;99.90
42019;DHT22;27703;51.980;5.848;2023-10-09T11:55:01;20.50;99.90
42019;DHT22;27703;51.980;5.848;2023-10-09T11:57:28;20.60;99.90
42019;DHT22;27703;51.980;5.848;2023-10-09T12:00:01;20.60;99.90
42019;DHT22;27703;51.980;5.848;2023-10-09T12:02:31;20.60;99.90
42019;DHT22;27703;51.980;5.848;2023-10-09T12:04:57;20.60;99.90
42019;DHT22;27703;51.980;5.848;2023-10-09T12:07:24;20.60;99.90
42019;DHT22;27703;51.980;5.848;2023-10-09T12:09:50;20.60;99.90
42019;DHT22;27703;51.980;5.848;2023-10-09T12:12:21;20.60;99.90
42019;DHT22;27703;51.980;5.848;2023-10-09T12:14:51;20.60;99.90
42019;DHT22;27703;51.980;5.848;2023-10-09T12:17:18;20.70;99.90
42019;DHT22;27703;51.980;5.848;2023-10-09T12:19:44;20.70;99.90
42019;DHT22;27703;51.980;5.848;2023-10-09T12:22:09;20.70;99.90
42019;DHT22;27703;51.980;5.848;2023-10-09T12:24:46;20.70;99.90
42019;DHT22;27703;51.980;5.848;2023-10-09T12:27:12;20.70;99.90
42019;DHT22;27703;51.980;5.848;2023-10-09T12:29:38;20.70;99.90
42019;DHT22;27703;51.980;5.848;2023-10-09T12:32:10;20.70;99.90
42019;DHT22;27703;51.980;5.848;2023-10-09T12:34:36;20.70;99.90
42019;DHT22;27703;51.980;5.848;2023-10-09T12:37:03;20.70;99.90
42019;DHT22;27703;51.980;5.848;2023-10-09T12:39:29;20.80;99.90
42019;DHT22;27703;51.980;5.848;2023-10-09T12:42:02;20.80;99.90
42019;DHT22;27703;51.980;5.848;2023-10-09T12:44:37;20.70;99.90
42019;DHT22;27703;51.980;5.848;2023-10-09T12:47:06;20.70;99.90
42019;DHT22;27703;51.980;5.848;2023-10-09T12:49:32;20.60;99.90
42019;DHT22;27703;51.980;5.848;2023-10-09T12:51:58;20.60;99.90
42019;DHT22;27703;51.980;5.848;2023-10-09T12:54:27;20.50;99.90
42019;DHT22;27703;51.980;5.848;2023-10-09T12:56:54;20.50;99.90
42019;DHT22;27703;51.980;5.848;2023-10-09T12:59:20;20.40;99.90
42019;DHT22;27703;51.980;5.848;2023-10-09T13:01:47;20.40;99.90
42019;DHT22;27703;51.980;5.848;2023-10-09T13:04:18;20.40;99.90
42019;DHT22;27703;51.980;5.848;2023-10-09T13:06:48;20.40;99.90
42019;DHT22;27703;51.980;5.848;2023-10-09T13:09:17;20.40;99.90
42019;DHT22;27703;51.980;5.848;2023-10-09T13:12:01;20.40;99.90
42019;DHT22;27703;51.980;5.848;2023-10-09T13:14:27;20.40;99.90
42019;DHT22;27703;51.980;5.848;2023-10-09T13:16:53;20.40;99.90
42019;DHT22;27703;51.980;5.848;2023-10-09T13:19:19;20.40;99.90
42019;DHT22;27703;51.980;5.848;2023-10-09T13:21:44;20.40;99.90
42019;DHT22;27703;51.980;5.848;2023-10-09T13:24:10;20.40;99.90
42019;DHT22;27703;51.980;5.848;2023-10-09T13:26:41;20.30;99.90
42019;DHT22;27703;51.980;5.848;2023-10-09T13:29:10;20.30;99.90
42019;DHT22;27703;51.980;5.848;2023-10-09T13:31:37;20.30;99.90
42019;DHT22;27703;51.980;5.848;2023-10-09T13:34:04;20.30;99.90
42019;DHT22;27703;51.980;5.848;2023-10-09T13:36:32;20.30;99.90
42019;DHT22;27703;51.980;5.848;2023-10-09T13:44:16;20.30;99.90
42019;DHT22;27703;51.980;5.848;2023-10-09T13:46:41;20.30;99.90
42019;DHT22;27703;51.980;5.848;2023-10-09T13:49:10;20.30;99.90
42019;DHT22;27703;51.980;5.848;2023-10-09T13:51:43;20.30;99.90
42019;DHT22;27703;51.980;5.848;2023-10-09T13:54:12;20.30;99.90
42019;DHT22;27703;51.980;5.848;2023-10-09T13:56:48;20.20;99.90
42019;DHT22;27703;51.980;5.848;2023-10-09T13:59:21;20.20;99.90
42019;DHT22;27703;51.980;5.848;2023-10-09T14:01:49;20.20;99.90
42019;DHT22;27703;51.980;5.848;2023-10-09T14:04:14;20.20;99.90
42019;DHT22;27703;51.980;5.848;2023-10-09T14:06:49;20.20;99.90
42019;DHT22;27703;51.980;5.848;2023-10-09T14:09:26;20.20;99.90
42019;DHT22;27703;51.980;5.848;2023-10-09T14:12:14;20.20;99.90
42019;DHT22;27703;51.980;5.848;2023-10-09T14:14:45;20.10;99.90
42019;DHT22;27703;51.980;5.848;2023-10-09T14:17:14;20.10;99.90
42019;DHT22;27703;51.980;5.848;2023-10-09T14:19:44;20.20;99.90
42019;DHT22;27703;51.980;5.848;2023-10-09T14:22:14;20.20;99.90
42019;DHT22;27703;51.980;5.848;2023-10-09T14:24:45;20.20;99.90
42019;DHT22;27703;51.980;5.848;2023-10-09T14:27:11;20.20;99.90
42019;DHT22;27703;51.980;5.848;2023-10-09T14:29:47;20.20;99.90
42019;DHT22;27703;51.980;5.848;2023-10-09T14:32:13;20.20;99.90
42019;DHT22;27703;51.980;5.848;2023-10-09T14:34:40;20.20;99.90
42019;DHT22;27703;51.980;5.848;2023-10-09T14:37:11;20.20;99.90
42019;DHT22;27703;51.980;5.848;2023-10-09T14:39:42;20.20;99.90
42019;DHT22;27703;51.980;5.848;2023-10-09T14:42:16;20.20;99.90
42019;DHT22;27703;51.980;5.848;2023-10-09T14:44:43;20.10;99.90
42019;DHT22;27703;51.980;5.848;2023-10-09T14:47:10;20.10;99.90
42019;DHT22;27703;51.980;5.848;2023-10-09T14:49:37;20.10;99.90
42019;DHT22;27703;51.980;5.848;2023-10-09T14:52:09;20.10;99.90
42019;DHT22;27703;51.980;5.848;2023-10-09T14:54:35;20.10;99.90
42019;DHT22;27703;51.980;5.848;2023-10-09T14:57:01;20.10;99.90
42019;DHT22;27703;51.980;5.848;2023-10-09T14:59:34;20.10;99.90
42019;DHT22;27703;51.980;5.848;2023-10-09T15:02:00;20.10;99.90
42019;DHT22;27703;51.980;5.848;2023-10-09T15:04:26;20.10;99.90
42019;DHT22;27703;51.980;5.848;2023-10-09T15:06:55;20.10;99.90
42019;DHT22;27703;51.980;5.848;2023-10-09T15:09:20;20.10;99.90
42019;DHT22;27703;51.980;5.848;2023-10-09T15:11:54;20.10;99.90
42019;DHT22;27703;51.980;5.848;2023-10-09T15:14:20;20.20;99.90
42019;DHT22;27703;51.980;5.848;2023-10-09T15:16:46;20.20;99.90
42019;DHT22;27703;51.980;5.848;2023-10-09T15:19:12;20.20;99.90
42019;DHT22;27703;51.980;5.848;2023-10-09T15:21:39;20.20;99.90
42019;DHT22;27703;51.980;5.848;2023-10-09T15:24:15;20.20;99.90
42019;DHT22;27703;51.980;5.848;2023-10-09T15:26:46;20.20;99.90
42019;DHT22;27703;51.980;5.848;2023-10-09T15:29:20;20.20;99.90
42019;DHT22;27703;51.980;5.848;2023-10-09T15:32:00;20.10;99.90
42019;DHT22;27703;51.980;5.848;2023-10-09T15:34:30;20.10;99.90
42019;DHT22;27703;51.980;5.848;2023-10-09T15:36:56;20.20;99.90
42019;DHT22;27703;51.980;5.848;2023-10-09T15:39:22;20.10;99.90
42019;DHT22;27703;51.980;5.848;2023-10-09T15:41:49;20.10;99.90
42019;DHT22;27703;51.980;5.848;2023-10-09T15:44:16;20.00;99.90
42019;DHT22;27703;51.980;5.848;2023-10-09T15:46:42;20.00;99.90
42019;DHT22;27703;51.980;5.848;2023-10-09T15:49:11;20.00;99.90
42019;DHT22;27703;51.980;5.848;2023-10-09T15:51:39;19.90;99.90
42019;DHT22;27703;51.980;5.848;2023-10-09T15:54:05;20.00;99.90
42019;DHT22;27703;51.980;5.848;2023-10-09T15:56:30;20.00;99.90
42019;DHT22;27703;51.980;5.848;2023-10-09T15:58:56;19.90;99.90
42019;DHT22;27703;51.980;5.848;2023-10-09T16:01:22;19.90;99.90
42019;DHT22;27703;51.980;5.848;2023-10-09T16:03:48;19.80;99.90
42019;DHT22;27703;51.980;5.848;2023-10-09T16:06:16;19.80;99.90
42019;DHT22;27703;51.980;5.848;2023-10-09T16:08:43;19.80;99.90
42019;DHT22;27703;51.980;5.848;2023-10-09T16:11:13;19.70;99.90
42019;DHT22;27703;51.980;5.848;2023-10-09T16:13:41;19.70;99.90
42019;DHT22;27703;51.980;5.848;2023-10-09T16:16:06;19.70;99.90
42019;DHT22;27703;51.980;5.848;2023-10-09T16:18:35;19.70;99.90
42019;DHT22;27703;51.980;5.848;2023-10-09T16:21:03;19.60;99.90
42019;DHT22;27703;51.980;5.848;2023-10-09T16:23:31;19.60;99.90
42019;DHT22;27703;51.980;5.848;2023-10-09T16:25:57;19.70;99.90